sensor_id;sensor_type;location;lat;lon;timestamp;pressure;altitude;pressure_sealevel;temperature;humidity
33795;BME280;51430;52.242;21.118;2022-08-19T00:00:12;99999.14;;;21.77;90.35
33795;BME280;51430;52.242;21.118;2022-08-19T00:03:02;99995.50;;;21.75;90.42
33795;BME280;51430;52.242;21.118;2022-08-19T00:05:30;99997.44;;;21.74;90.59
33795;BME280;51430;52.242;21.118;2022-08-19T00:07:59;99994.35;;;21.69;90.94
33795;BME280;51430;52.242;21.118;2022-08-19T00:10:27;99994.13;;;21.65;91.04
33795;BME280;51430;52.242;21.118;2022-08-19T00:12:55;100003.31;;;21.63;91.16
33795;BME280;51430;52.242;21.118;2022-08-19T00:15:24;99996.09;;;21.58;91.46
33795;BME280;51430;52.242;21.118;2022-08-19T00:17:53;99999.66;;;21.56;91.53
33795;BME280;51430;52.242;21.118;2022-08-19T00:20:22;99997.38;;;21.52;91.63
33795;BME280;51430;52.242;21.118;2022-08-19T00:22:50;99992.13;;;21.45;92.05
33795;BME280;51430;52.242;21.118;2022-08-19T00:25:19;99991.98;;;21.42;92.20
33795;BME280;51430;52.242;21.118;2022-08-19T00:27:57;99995.23;;;21.39;92.39
33795;BME280;51430;52.242;21.118;2022-08-19T00:30:28;100000.48;;;21.38;92.47
33795;BME280;51430;52.242;21.118;2022-08-19T00:32:57;100002.84;;;21.36;92.54
33795;BME280;51430;52.242;21.118;2022-08-19T00:35:25;99998.16;;;21.35;92.49
33795;BME280;51430;52.242;21.118;2022-08-19T00:37:55;100006.47;;;21.31;92.65
33795;BME280;51430;52.242;21.118;2022-08-19T00:40:23;100006.58;;;21.29;92.92
33795;BME280;51430;52.242;21.118;2022-08-19T00:42:52;100004.91;;;21.25;92.79
33795;BME280;51430;52.242;21.118;2022-08-19T00:45:25;100012.46;;;21.23;93.04
33795;BME280;51430;52.242;21.118;2022-08-19T00:47:55;100011.99;;;21.21;93.18
33795;BME280;51430;52.242;21.118;2022-08-19T00:50:23;100013.92;;;21.16;93.30
33795;BME280;51430;52.242;21.118;2022-08-19T00:52:52;100010.93;;;21.15;93.54
33795;BME280;51430;52.242;21.118;2022-08-19T00:55:24;100006.20;;;21.13;93.72
33795;BME280;51430;52.242;21.118;2022-08-19T00:57:58;100007.52;;;21.09;93.96
33795;BME280;51430;52.242;21.118;2022-08-19T01:00:29;100008.89;;;21.07;94.06
33795;BME280;51430;52.242;21.118;2022-08-19T01:02:58;100005.64;;;21.04;94.05
33795;BME280;51430;52.242;21.118;2022-08-19T01:05:29;100006.65;;;21.02;93.81
33795;BME280;51430;52.242;21.118;2022-08-19T01:07:59;100010.66;;;21.00;93.93
33795;BME280;51430;52.242;21.118;2022-08-19T01:10:36;100006.16;;;20.99;93.84
33795;BME280;51430;52.242;21.118;2022-08-19T01:13:05;100008.65;;;20.99;93.98
33795;BME280;51430;52.242;21.118;2022-08-19T01:15:38;100011.61;;;20.96;94.14
33795;BME280;51430;52.242;21.118;2022-08-19T01:18:11;100011.05;;;20.92;94.07
33795;BME280;51430;52.242;21.118;2022-08-19T01:20:42;100013.79;;;20.89;94.27
33795;BME280;51430;52.242;21.118;2022-08-19T01:23:11;100014.14;;;20.86;94.34
33795;BME280;51430;52.242;21.118;2022-08-19T01:25:51;100015.91;;;20.83;94.56
33795;BME280;51430;52.242;21.118;2022-08-19T01:28:26;100012.95;;;20.81;94.67
33795;BME280;51430;52.242;21.118;2022-08-19T01:31:01;100012.07;;;20.80;94.76
33795;BME280;51430;52.242;21.118;2022-08-19T01:33:34;100011.23;;;20.77;94.94
33795;BME280;51430;52.242;21.118;2022-08-19T01:36:07;100010.52;;;20.72;95.15
33795;BME280;51430;52.242;21.118;2022-08-19T01:38:39;100010.39;;;20.69;95.46
33795;BME280;51430;52.242;21.118;2022-08-19T01:41:11;100005.92;;;20.67;95.58
33795;BME280;51430;52.242;21.118;2022-08-19T01:43:40;100010.82;;;20.66;95.53
33795;BME280;51430;52.242;21.118;2022-08-19T01:46:29;100016.66;;;20.61;95.63
33795;BME280;51430;52.242;21.118;2022-08-19T01:48:59;100016.01;;;20.58;95.87
33795;BME280;51430;52.242;21.118;2022-08-19T01:51:28;100011.23;;;20.55;96.10
33795;BME280;51430;52.242;21.118;2022-08-19T01:54:08;100008.55;;;20.53;95.92
33795;BME280;51430;52.242;21.118;2022-08-19T01:56:36;100013.21;;;20.49;96.04
33795;BME280;51430;52.242;21.118;2022-08-19T01:59:15;100014.95;;;20.47;95.98
33795;BME280;51430;52.242;21.118;2022-08-19T02:01:44;100009.29;;;20.42;96.25
33795;BME280;51430;52.242;21.118;2022-08-19T02:04:13;100002.87;;;20.39;96.55
33795;BME280;51430;52.242;21.118;2022-08-19T02:06:42;100003.88;;;20.35;96.83
33795;BME280;51430;52.242;21.118;2022-08-19T02:09:10;99999.80;;;20.35;96.78
33795;BME280;51430;52.242;21.118;2022-08-19T02:11:38;99999.94;;;20.29;96.74
33795;BME280;51430;52.242;21.118;2022-08-19T02:14:08;100001.77;;;20.26;97.29
33795;BME280;51430;52.242;21.118;2022-08-19T02:16:37;99994.02;;;20.29;97.21
33795;BME280;51430;52.242;21.118;2022-08-19T02:19:06;99994.57;;;20.31;97.08
33795;BME280;51430;52.242;21.118;2022-08-19T02:21:34;99994.60;;;20.31;97.08
33795;BME280;51430;52.242;21.118;2022-08-19T02:24:03;99992.94;;;20.32;97.12
33795;BME280;51430;52.242;21.118;2022-08-19T02:26:32;99985.30;;;20.32;97.11
33795;BME280;51430;52.242;21.118;2022-08-19T02:29:00;99986.70;;;20.32;97.03
33795;BME280;51430;52.242;21.118;2022-08-19T02:31:28;99986.27;;;20.31;97.01
33795;BME280;51430;52.242;21.118;2022-08-19T02:33:56;99989.81;;;20.27;96.93
33795;BME280;51430;52.242;21.118;2022-08-19T02:36:25;99984.09;;;20.23;97.29
33795;BME280;51430;52.242;21.118;2022-08-19T02:38:54;99987.52;;;20.21;97.46
33795;BME280;51430;52.242;21.118;2022-08-19T02:41:29;99987.08;;;20.17;97.55
33795;BME280;51430;52.242;21.118;2022-08-19T02:44:00;99985.65;;;20.13;97.65
33795;BME280;51430;52.242;21.118;2022-08-19T02:46:49;99984.52;;;20.14;97.50
33795;BME280;51430;52.242;21.118;2022-08-19T02:49:19;99985.76;;;20.14;97.63
33795;BME280;51430;52.242;21.118;2022-08-19T02:51:47;99988.10;;;20.12;97.49
33795;BME280;51430;52.242;21.118;2022-08-19T02:54:16;99992.05;;;20.09;97.74
33795;BME280;51430;52.242;21.118;2022-08-19T02:56:45;99991.98;;;20.07;97.79
33795;BME280;51430;52.242;21.118;2022-08-19T02:59:14;99990.23;;;20.10;97.64
33795;BME280;51430;52.242;21.118;2022-08-19T03:01:42;99993.60;;;20.09;97.77
33795;BME280;51430;52.242;21.118;2022-08-19T03:04:13;99990.69;;;20.08;97.88
33795;BME280;51430;52.242;21.118;2022-08-19T03:06:45;99991.43;;;20.08;97.78
33795;BME280;51430;52.242;21.118;2022-08-19T03:09:15;99985.26;;;20.08;98.07
33795;BME280;51430;52.242;21.118;2022-08-19T03:11:43;99988.04;;;20.05;98.03
33795;BME280;51430;52.242;21.118;2022-08-19T03:14:12;99989.38;;;20.01;98.22
33795;BME280;51430;52.242;21.118;2022-08-19T03:16:43;99997.71;;;19.98;98.37
33795;BME280;51430;52.242;21.118;2022-08-19T03:19:13;99993.50;;;19.95;98.26
33795;BME280;51430;52.242;21.118;2022-08-19T03:21:42;99990.95;;;19.94;98.68
33795;BME280;51430;52.242;21.118;2022-08-19T03:24:13;99985.91;;;19.96;98.61
33795;BME280;51430;52.242;21.118;2022-08-19T03:26:44;99982.21;;;19.98;98.65
33795;BME280;51430;52.242;21.118;2022-08-19T03:29:14;99979.33;;;19.98;98.62
33795;BME280;51430;52.242;21.118;2022-08-19T03:32:01;99978.09;;;19.97;98.75
33795;BME280;51430;52.242;21.118;2022-08-19T03:34:34;99985.55;;;19.96;98.68
33795;BME280;51430;52.242;21.118;2022-08-19T03:37:07;99985.70;;;19.98;98.74
33795;BME280;51430;52.242;21.118;2022-08-19T03:39:38;99987.40;;;20.03;98.72
33795;BME280;51430;52.242;21.118;2022-08-19T03:42:09;99985.23;;;20.06;98.67
33795;BME280;51430;52.242;21.118;2022-08-19T03:44:57;99986.98;;;20.09;98.47
33795;BME280;51430;52.242;21.118;2022-08-19T03:47:26;99995.32;;;20.09;98.50
33795;BME280;51430;52.242;21.118;2022-08-19T03:49:54;99996.23;;;20.10;98.45
33795;BME280;51430;52.242;21.118;2022-08-19T03:52:22;100002.85;;;20.13;98.40
33795;BME280;51430;52.242;21.118;2022-08-19T03:54:50;100008.79;;;20.18;98.21
33795;BME280;51430;52.242;21.118;2022-08-19T03:57:18;100007.89;;;20.25;98.11
33795;BME280;51430;52.242;21.118;2022-08-19T03:59:46;100012.96;;;20.33;97.76
33795;BME280;51430;52.242;21.118;2022-08-19T04:02:14;100013.23;;;20.41;97.70
33795;BME280;51430;52.242;21.118;2022-08-19T04:04:43;100017.52;;;20.48;97.41
33795;BME280;51430;52.242;21.118;2022-08-19T04:07:13;100019.19;;;20.53;97.42
33795;BME280;51430;52.242;21.118;2022-08-19T04:09:43;100016.66;;;20.59;97.31
33795;BME280;51430;52.242;21.118;2022-08-19T04:12:11;100015.70;;;20.64;97.18
33795;BME280;51430;52.242;21.118;2022-08-19T04:14:40;100016.39;;;20.71;96.98
33795;BME280;51430;52.242;21.118;2022-08-19T04:17:08;100012.91;;;20.82;96.54
33795;BME280;51430;52.242;21.118;2022-08-19T04:22:29;100011.64;;;21.03;95.58
33795;BME280;51430;52.242;21.118;2022-08-19T04:24:57;100013.40;;;21.13;95.37
33795;BME280;51430;52.242;21.118;2022-08-19T04:27:25;100010.99;;;21.24;95.09
33795;BME280;51430;52.242;21.118;2022-08-19T04:29:54;100008.80;;;21.34;94.93
33795;BME280;51430;52.242;21.118;2022-08-19T04:32:22;100005.45;;;21.42;94.67
33795;BME280;51430;52.242;21.118;2022-08-19T04:34:51;100007.00;;;21.51;94.15
33795;BME280;51430;52.242;21.118;2022-08-19T04:37:39;100006.42;;;21.66;93.47
33795;BME280;51430;52.242;21.118;2022-08-19T04:40:08;100006.95;;;21.80;92.39
33795;BME280;51430;52.242;21.118;2022-08-19T04:42:54;100008.92;;;21.99;91.27
33795;BME280;51430;52.242;21.118;2022-08-19T04:45:24;100012.39;;;22.18;90.31
33795;BME280;51430;52.242;21.118;2022-08-19T04:47:55;100012.48;;;22.39;89.63
33795;BME280;51430;52.242;21.118;2022-08-19T04:50:45;100010.04;;;22.62;88.77
33795;BME280;51430;52.242;21.118;2022-08-19T04:53:13;100007.55;;;22.82;87.41
33795;BME280;51430;52.242;21.118;2022-08-19T04:55:42;100006.52;;;23.00;87.14
33795;BME280;51430;52.242;21.118;2022-08-19T04:58:10;100002.74;;;23.19;86.24
33795;BME280;51430;52.242;21.118;2022-08-19T05:00:39;100006.05;;;23.34;84.27
33795;BME280;51430;52.242;21.118;2022-08-19T05:03:08;100007.77;;;23.45;82.56
33795;BME280;51430;52.242;21.118;2022-08-19T05:05:41;100014.84;;;23.54;82.16
33795;BME280;51430;52.242;21.118;2022-08-19T05:08:13;100013.92;;;23.66;81.76
33795;BME280;51430;52.242;21.118;2022-08-19T05:10:58;100015.20;;;23.77;80.45
33795;BME280;51430;52.242;21.118;2022-08-19T05:13:26;100014.98;;;23.93;79.95
33795;BME280;51430;52.242;21.118;2022-08-19T05:15:57;100014.68;;;24.06;78.68
33795;BME280;51430;52.242;21.118;2022-08-19T05:18:26;100013.53;;;24.19;78.52
33795;BME280;51430;52.242;21.118;2022-08-19T05:21:16;100010.05;;;24.24;77.91
33795;BME280;51430;52.242;21.118;2022-08-19T05:24:05;100009.81;;;24.18;77.94
33795;BME280;51430;52.242;21.118;2022-08-19T05:26:38;100014.91;;;24.12;78.27
33795;BME280;51430;52.242;21.118;2022-08-19T05:29:08;100017.88;;;24.08;78.39
33795;BME280;51430;52.242;21.118;2022-08-19T05:31:38;100021.02;;;24.12;78.27
33795;BME280;51430;52.242;21.118;2022-08-19T05:34:09;100023.58;;;24.25;78.46
33795;BME280;51430;52.242;21.118;2022-08-19T05:36:48;100028.04;;;24.59;77.14
33795;BME280;51430;52.242;21.118;2022-08-19T05:39:20;100027.54;;;24.74;76.06
33795;BME280;51430;52.242;21.118;2022-08-19T05:41:53;100029.23;;;24.59;76.37
33795;BME280;51430;52.242;21.118;2022-08-19T05:44:29;100030.77;;;24.47;76.09
33795;BME280;51430;52.242;21.118;2022-08-19T05:47:00;100036.73;;;24.55;76.60
33795;BME280;51430;52.242;21.118;2022-08-19T05:49:32;100049.20;;;24.68;76.35
33795;BME280;51430;52.242;21.118;2022-08-19T05:52:11;100055.24;;;24.94;75.01
33795;BME280;51430;52.242;21.118;2022-08-19T05:54:40;100055.45;;;25.35;74.30
33795;BME280;51430;52.242;21.118;2022-08-19T05:57:09;100053.77;;;26.14;72.65
33795;BME280;51430;52.242;21.118;2022-08-19T05:59:39;100057.93;;;27.20;67.97
33795;BME280;51430;52.242;21.118;2022-08-19T06:02:07;100057.73;;;27.88;64.54
33795;BME280;51430;52.242;21.118;2022-08-19T06:04:35;100057.21;;;28.22;62.60
33795;BME280;51430;52.242;21.118;2022-08-19T06:07:04;100048.38;;;28.51;61.32
33795;BME280;51430;52.242;21.118;2022-08-19T06:09:39;100054.45;;;28.61;60.74
33795;BME280;51430;52.242;21.118;2022-08-19T06:12:30;100053.63;;;29.17;60.85
33795;BME280;51430;52.242;21.118;2022-08-19T06:15:07;100056.44;;;29.64;58.57
33795;BME280;51430;52.242;21.118;2022-08-19T06:17:35;100045.95;;;29.72;58.75
33795;BME280;51430;52.242;21.118;2022-08-19T06:20:07;100037.77;;;29.04;58.46
33795;BME280;51430;52.242;21.118;2022-08-19T06:22:41;100037.55;;;28.54;60.98
33795;BME280;51430;52.242;21.118;2022-08-19T06:25:10;100033.80;;;28.21;61.18
33795;BME280;51430;52.242;21.118;2022-08-19T06:27:38;100037.95;;;28.02;62.15
33795;BME280;51430;52.242;21.118;2022-08-19T06:30:27;100041.33;;;27.77;63.38
33795;BME280;51430;52.242;21.118;2022-08-19T06:32:55;100042.38;;;27.46;63.74
33795;BME280;51430;52.242;21.118;2022-08-19T06:35:23;100043.82;;;27.22;64.71
33795;BME280;51430;52.242;21.118;2022-08-19T06:37:53;100043.45;;;27.17;65.45
33795;BME280;51430;52.242;21.118;2022-08-19T06:40:22;100044.92;;;27.31;65.56
33795;BME280;51430;52.242;21.118;2022-08-19T06:42:50;100050.69;;;27.68;64.29
33795;BME280;51430;52.242;21.118;2022-08-19T06:45:22;100054.39;;;27.89;63.40
33795;BME280;51430;52.242;21.118;2022-08-19T06:48:02;100056.16;;;28.08;62.95
33795;BME280;51430;52.242;21.118;2022-08-19T06:50:30;100048.60;;;28.08;62.56
33795;BME280;51430;52.242;21.118;2022-08-19T06:52:58;100046.73;;;28.09;62.37
33795;BME280;51430;52.242;21.118;2022-08-19T06:55:31;100053.95;;;28.05;62.16
33795;BME280;51430;52.242;21.118;2022-08-19T06:58:04;100057.58;;;28.06;62.03
33795;BME280;51430;52.242;21.118;2022-08-19T07:00:32;100060.02;;;28.29;62.04
33795;BME280;51430;52.242;21.118;2022-08-19T07:03:02;100055.01;;;28.81;60.91
33795;BME280;51430;52.242;21.118;2022-08-19T07:05:40;100054.63;;;28.98;59.58
33795;BME280;51430;52.242;21.118;2022-08-19T07:08:13;100057.80;;;29.20;59.49
33795;BME280;51430;52.242;21.118;2022-08-19T07:10:45;100062.48;;;29.16;59.25
33795;BME280;51430;52.242;21.118;2022-08-19T07:13:13;100067.29;;;29.01;59.41
33795;BME280;51430;52.242;21.118;2022-08-19T07:15:41;100070.35;;;29.45;59.05
33795;BME280;51430;52.242;21.118;2022-08-19T07:18:10;100067.65;;;29.87;57.55
33795;BME280;51430;52.242;21.118;2022-08-19T07:20:39;100066.45;;;29.64;58.42
33795;BME280;51430;52.242;21.118;2022-08-19T07:23:09;100072.73;;;29.52;58.88
33795;BME280;51430;52.242;21.118;2022-08-19T07:25:43;100082.35;;;29.28;59.08
33795;BME280;51430;52.242;21.118;2022-08-19T07:28:19;100083.31;;;29.10;59.70
33795;BME280;51430;52.242;21.118;2022-08-19T07:30:52;100074.62;;;29.24;58.87
33795;BME280;51430;52.242;21.118;2022-08-19T07:33:22;100072.02;;;29.40;58.29
33795;BME280;51430;52.242;21.118;2022-08-19T07:35:50;100072.63;;;29.78;57.70
33795;BME280;51430;52.242;21.118;2022-08-19T07:38:18;100064.38;;;29.82;57.19
33795;BME280;51430;52.242;21.118;2022-08-19T07:40:46;100053.95;;;30.11;57.58
33795;BME280;51430;52.242;21.118;2022-08-19T07:43:14;100049.86;;;30.30;57.08
33795;BME280;51430;52.242;21.118;2022-08-19T07:45:45;100057.25;;;30.18;56.34
33795;BME280;51430;52.242;21.118;2022-08-19T07:48:14;100058.98;;;30.20;56.91
33795;BME280;51430;52.242;21.118;2022-08-19T07:50:43;100056.91;;;30.14;56.85
33795;BME280;51430;52.242;21.118;2022-08-19T07:53:11;100058.45;;;30.57;56.89
33795;BME280;51430;52.242;21.118;2022-08-19T07:55:41;100059.82;;;31.00;55.36
33795;BME280;51430;52.242;21.118;2022-08-19T07:58:13;100062.38;;;31.41;55.19
33795;BME280;51430;52.242;21.118;2022-08-19T08:00:43;100065.08;;;31.81;53.46
33795;BME280;51430;52.242;21.118;2022-08-19T08:03:11;100067.95;;;31.93;52.20
33795;BME280;51430;52.242;21.118;2022-08-19T08:05:40;100068.41;;;31.93;52.29
33795;BME280;51430;52.242;21.118;2022-08-19T08:08:27;100065.18;;;31.44;52.50
33795;BME280;51430;52.242;21.118;2022-08-19T08:11:19;100059.92;;;31.22;53.55
33795;BME280;51430;52.242;21.118;2022-08-19T08:13:50;100058.14;;;31.50;53.78
33795;BME280;51430;52.242;21.118;2022-08-19T08:16:28;100061.41;;;31.89;52.73
33795;BME280;51430;52.242;21.118;2022-08-19T08:18:57;100060.05;;;31.79;52.11
33795;BME280;51430;52.242;21.118;2022-08-19T08:21:26;100063.48;;;31.35;52.69
33795;BME280;51430;52.242;21.118;2022-08-19T08:23:54;100059.12;;;31.37;53.55
33795;BME280;51430;52.242;21.118;2022-08-19T08:26:24;100059.35;;;31.53;53.00
33795;BME280;51430;52.242;21.118;2022-08-19T08:28:53;100053.91;;;31.65;52.62
33795;BME280;51430;52.242;21.118;2022-08-19T08:31:21;100058.01;;;31.63;52.60
33795;BME280;51430;52.242;21.118;2022-08-19T08:33:49;100058.14;;;31.64;52.54
33795;BME280;51430;52.242;21.118;2022-08-19T08:36:17;100065.67;;;31.80;52.51
33795;BME280;51430;52.242;21.118;2022-08-19T08:38:45;100071.88;;;32.01;52.66
33795;BME280;51430;52.242;21.118;2022-08-19T08:41:25;100072.23;;;32.24;52.47
33795;BME280;51430;52.242;21.118;2022-08-19T08:43:56;100069.52;;;32.26;52.18
33795;BME280;51430;52.242;21.118;2022-08-19T08:49:04;100074.11;;;32.14;52.12
33795;BME280;51430;52.242;21.118;2022-08-19T08:51:43;100072.36;;;32.10;52.08
33795;BME280;51430;52.242;21.118;2022-08-19T08:54:18;100070.96;;;32.30;51.42
33795;BME280;51430;52.242;21.118;2022-08-19T08:56:49;100066.41;;;32.75;51.73
33795;BME280;51430;52.242;21.118;2022-08-19T08:59:24;100066.85;;;32.97;50.20
33795;BME280;51430;52.242;21.118;2022-08-19T09:01:54;100071.31;;;33.03;49.77
33795;BME280;51430;52.242;21.118;2022-08-19T09:04:22;100080.04;;;32.88;49.65
33795;BME280;51430;52.242;21.118;2022-08-19T09:07:31;100082.48;;;32.46;50.37
33795;BME280;51430;52.242;21.118;2022-08-19T09:15:57;100097.80;;;32.83;48.89
33795;BME280;51430;52.242;21.118;2022-08-19T09:18:50;100090.26;;;33.17;48.32
33795;BME280;51430;52.242;21.118;2022-08-19T09:21:22;100092.69;;;33.76;47.29
33795;BME280;51430;52.242;21.118;2022-08-19T09:24:01;100103.88;;;34.16;45.97
33795;BME280;51430;52.242;21.118;2022-08-19T09:26:31;100092.21;;;34.37;45.88
33795;BME280;51430;52.242;21.118;2022-08-19T09:29:21;100086.35;;;34.87;45.48
33795;BME280;51430;52.242;21.118;2022-08-19T09:31:49;100085.85;;;35.42;44.23
33795;BME280;51430;52.242;21.118;2022-08-19T09:34:17;100085.52;;;35.41;44.56
33795;BME280;51430;52.242;21.118;2022-08-19T09:36:49;100088.97;;;35.67;44.32
33795;BME280;51430;52.242;21.118;2022-08-19T09:39:21;100098.95;;;36.01;43.26
33795;BME280;51430;52.242;21.118;2022-08-19T09:41:50;100104.15;;;35.52;43.03
33795;BME280;51430;52.242;21.118;2022-08-19T09:44:20;100098.86;;;35.15;42.68
33795;BME280;51430;52.242;21.118;2022-08-19T09:46:49;100096.61;;;35.18;42.67
33795;BME280;51430;52.242;21.118;2022-08-19T09:49:19;100099.89;;;35.34;42.82
33795;BME280;51430;52.242;21.118;2022-08-19T09:51:52;100105.45;;;35.55;42.10
33795;BME280;51430;52.242;21.118;2022-08-19T09:54:23;100104.91;;;35.88;41.23
33795;BME280;51430;52.242;21.118;2022-08-19T09:56:53;100111.63;;;36.29;40.68
33795;BME280;51430;52.242;21.118;2022-08-19T09:59:22;100105.09;;;36.23;40.59
33795;BME280;51430;52.242;21.118;2022-08-19T10:01:50;100101.50;;;36.23;40.27
33795;BME280;51430;52.242;21.118;2022-08-19T10:04:20;100099.08;;;35.69;41.21
33795;BME280;51430;52.242;21.118;2022-08-19T10:06:50;100096.47;;;36.61;40.33
33795;BME280;51430;52.242;21.118;2022-08-19T10:09:20;100094.17;;;36.49;39.70
33795;BME280;51430;52.242;21.118;2022-08-19T10:12:03;100094.79;;;36.99;39.25
33795;BME280;51430;52.242;21.118;2022-08-19T10:14:33;100094.93;;;37.31;39.16
33795;BME280;51430;52.242;21.118;2022-08-19T10:17:02;100089.17;;;37.66;38.24
33795;BME280;51430;52.242;21.118;2022-08-19T10:19:46;100083.27;;;37.29;38.95
33795;BME280;51430;52.242;21.118;2022-08-19T10:22:23;100089.79;;;38.05;38.10
33795;BME280;51430;52.242;21.118;2022-08-19T10:24:53;100084.48;;;37.80;38.19
33795;BME280;51430;52.242;21.118;2022-08-19T10:27:21;100084.37;;;37.84;39.03
33795;BME280;51430;52.242;21.118;2022-08-19T10:29:49;100081.59;;;38.92;37.96
33795;BME280;51430;52.242;21.118;2022-08-19T10:32:17;100079.75;;;39.23;37.00
33795;BME280;51430;52.242;21.118;2022-08-19T10:35:02;100086.06;;;39.24;36.00
33795;BME280;51430;52.242;21.118;2022-08-19T10:37:32;100081.85;;;38.79;36.65
33795;BME280;51430;52.242;21.118;2022-08-19T10:40:03;100074.98;;;39.09;36.43
33795;BME280;51430;52.242;21.118;2022-08-19T10:42:32;100073.80;;;39.52;35.50
33795;BME280;51430;52.242;21.118;2022-08-19T10:44:59;100069.80;;;39.85;35.50
33795;BME280;51430;52.242;21.118;2022-08-19T10:47:28;100074.06;;;39.38;34.34
33795;BME280;51430;52.242;21.118;2022-08-19T10:49:58;100076.25;;;38.49;35.29
33795;BME280;51430;52.242;21.118;2022-08-19T10:52:46;100077.68;;;38.51;35.82
33795;BME280;51430;52.242;21.118;2022-08-19T10:55:22;100079.59;;;38.61;36.02
33795;BME280;51430;52.242;21.118;2022-08-19T10:58:16;100079.09;;;38.84;34.80
33795;BME280;51430;52.242;21.118;2022-08-19T11:00:54;100075.10;;;38.56;35.63
33795;BME280;51430;52.242;21.118;2022-08-19T11:03:24;100076.23;;;38.24;35.05
33795;BME280;51430;52.242;21.118;2022-08-19T11:06:03;100070.24;;;37.74;36.52
33795;BME280;51430;52.242;21.118;2022-08-19T11:08:33;100075.28;;;38.03;35.50
33795;BME280;51430;52.242;21.118;2022-08-19T11:11:03;100070.48;;;37.97;35.72
33795;BME280;51430;52.242;21.118;2022-08-19T11:13:39;100066.42;;;38.48;34.49
33795;BME280;51430;52.242;21.118;2022-08-19T11:16:13;100061.34;;;38.45;34.87
33795;BME280;51430;52.242;21.118;2022-08-19T11:18:54;100058.64;;;38.91;34.74
33795;BME280;51430;52.242;21.118;2022-08-19T11:21:26;100057.32;;;38.16;34.22
33795;BME280;51430;52.242;21.118;2022-08-19T11:23:56;100056.98;;;38.19;35.10
33795;BME280;51430;52.242;21.118;2022-08-19T11:26:26;100053.78;;;38.05;34.97
33795;BME280;51430;52.242;21.118;2022-08-19T11:28:55;100042.42;;;37.84;35.28
33795;BME280;51430;52.242;21.118;2022-08-19T11:31:31;100037.36;;;37.61;35.39
33795;BME280;51430;52.242;21.118;2022-08-19T11:34:03;100039.98;;;38.09;35.02
33795;BME280;51430;52.242;21.118;2022-08-19T11:36:32;100042.21;;;38.89;34.93
33795;BME280;51430;52.242;21.118;2022-08-19T11:39:01;100038.98;;;39.84;33.06
33795;BME280;51430;52.242;21.118;2022-08-19T11:41:29;100040.58;;;40.37;32.13
33795;BME280;51430;52.242;21.118;2022-08-19T11:43:57;100042.52;;;40.45;32.05
33795;BME280;51430;52.242;21.118;2022-08-19T11:46:26;100037.77;;;40.97;31.41
33795;BME280;51430;52.242;21.118;2022-08-19T11:48:58;100039.98;;;41.26;30.91
33795;BME280;51430;52.242;21.118;2022-08-19T11:51:29;100042.33;;;40.53;31.42
33795;BME280;51430;52.242;21.118;2022-08-19T11:53:58;100040.08;;;39.46;32.42
33795;BME280;51430;52.242;21.118;2022-08-19T11:56:28;100034.98;;;39.27;32.94
33795;BME280;51430;52.242;21.118;2022-08-19T11:58:57;100026.71;;;38.95;32.97
33795;BME280;51430;52.242;21.118;2022-08-19T12:01:26;100019.01;;;39.02;33.71
33795;BME280;51430;52.242;21.118;2022-08-19T12:03:55;100017.66;;;38.77;34.16
33795;BME280;51430;52.242;21.118;2022-08-19T12:06:28;100009.73;;;38.82;33.84
33795;BME280;51430;52.242;21.118;2022-08-19T12:08:58;100002.72;;;39.38;32.87
33795;BME280;51430;52.242;21.118;2022-08-19T12:11:28;100001.02;;;39.55;32.69
33795;BME280;51430;52.242;21.118;2022-08-19T12:14:01;99999.47;;;39.76;32.59
33795;BME280;51430;52.242;21.118;2022-08-19T12:16:30;99997.88;;;39.70;32.44
33795;BME280;51430;52.242;21.118;2022-08-19T12:19:00;100002.19;;;39.15;32.19
33795;BME280;51430;52.242;21.118;2022-08-19T12:21:34;99992.79;;;38.74;33.14
33795;BME280;51430;52.242;21.118;2022-08-19T12:24:04;99993.80;;;38.47;32.94
33795;BME280;51430;52.242;21.118;2022-08-19T12:26:33;99985.56;;;38.24;33.94
33795;BME280;51430;52.242;21.118;2022-08-19T12:29:20;99984.02;;;38.83;33.23
33795;BME280;51430;52.242;21.118;2022-08-19T12:31:51;99988.98;;;39.88;31.89
33795;BME280;51430;52.242;21.118;2022-08-19T12:34:19;99992.36;;;40.30;31.38
33795;BME280;51430;52.242;21.118;2022-08-19T12:36:47;99994.63;;;40.38;31.09
33795;BME280;51430;52.242;21.118;2022-08-19T12:39:17;99989.53;;;39.90;31.30
33795;BME280;51430;52.242;21.118;2022-08-19T12:41:45;99979.91;;;39.22;32.15
33795;BME280;51430;52.242;21.118;2022-08-19T12:44:22;99973.62;;;39.39;32.17
33795;BME280;51430;52.242;21.118;2022-08-19T12:46:59;99968.88;;;39.46;32.13
33795;BME280;51430;52.242;21.118;2022-08-19T12:49:28;99971.13;;;39.81;31.78
33795;BME280;51430;52.242;21.118;2022-08-19T12:52:16;99959.00;;;39.09;32.04
33795;BME280;51430;52.242;21.118;2022-08-19T12:54:52;99961.64;;;38.87;32.49
33795;BME280;51430;52.242;21.118;2022-08-19T12:57:24;99964.48;;;38.71;32.72
33795;BME280;51430;52.242;21.118;2022-08-19T13:00:03;99955.73;;;38.70;32.67
33795;BME280;51430;52.242;21.118;2022-08-19T13:02:34;99954.20;;;39.34;31.81
33795;BME280;51430;52.242;21.118;2022-08-19T13:05:08;99953.48;;;39.19;32.08
33795;BME280;51430;52.242;21.118;2022-08-19T13:07:38;99957.37;;;39.24;32.18
33795;BME280;51430;52.242;21.118;2022-08-19T13:10:09;99957.39;;;39.55;31.55
33795;BME280;51430;52.242;21.118;2022-08-19T13:12:39;99958.23;;;39.20;31.46
33795;BME280;51430;52.242;21.118;2022-08-19T13:15:09;99951.75;;;38.84;32.36
33795;BME280;51430;52.242;21.118;2022-08-19T13:17:39;99944.73;;;38.42;32.54